sensor_id;sensor_type;location;lat;lon;timestamp;P1;durP1;ratioP1;P2;durP2;ratioP2
21539;SDS011;10931;52.164;5.518;2023-11-21T00:00:47;0.77;;;0.63;;
21539;SDS011;10931;52.164;5.518;2023-11-21T00:03:21;0.80;;;0.70;;
21539;SDS011;10931;52.164;5.518;2023-11-21T00:08:21;1.00;;;0.80;;
21539;SDS011;10931;52.164;5.518;2023-11-21T00:10:54;1.23;;;0.70;;
21539;SDS011;10931;52.164;5.518;2023-11-21T00:13:23;1.02;;;0.80;;
21539;SDS011;10931;52.164;5.518;2023-11-21T00:15:50;1.23;;;0.80;;
21539;SDS011;10931;52.164;5.518;2023-11-21T00:20:57;0.90;;;0.75;;
21539;SDS011;10931;52.164;5.518;2023-11-21T00:23:28;1.08;;;0.63;;
21539;SDS011;10931;52.164;5.518;2023-11-21T00:25:54;0.90;;;0.60;;
21539;SDS011;10931;52.164;5.518;2023-11-21T00:31:10;0.98;;;0.77;;
21539;SDS011;10931;52.164;5.518;2023-11-21T00:33:50;1.05;;;0.70;;
21539;SDS011;10931;52.164;5.518;2023-11-21T00:36:16;0.60;;;0.60;;
21539;SDS011;10931;52.164;5.518;2023-11-21T00:38:46;1.05;;;0.60;;
21539;SDS011;10931;52.164;5.518;2023-11-21T00:41:14;1.42;;;0.90;;
21539;SDS011;10931;52.164;5.518;2023-11-21T00:43:45;1.02;;;0.70;;
21539;SDS011;10931;52.164;5.518;2023-11-21T00:46:11;0.55;;;0.50;;
21539;SDS011;10931;52.164;5.518;2023-11-21T00:48:39;0.88;;;0.70;;
21539;SDS011;10931;52.164;5.518;2023-11-21T00:51:06;1.52;;;0.70;;
21539;SDS011;10931;52.164;5.518;2023-11-21T00:53:35;0.63;;;0.60;;
21539;SDS011;10931;52.164;5.518;2023-11-21T00:56:01;0.77;;;0.60;;
21539;SDS011;10931;52.164;5.518;2023-11-21T00:58:27;0.73;;;0.60;;
21539;SDS011;10931;52.164;5.518;2023-11-21T01:01:06;1.38;;;0.80;;
21539;SDS011;10931;52.164;5.518;2023-11-21T01:03:40;1.42;;;0.80;;
21539;SDS011;10931;52.164;5.518;2023-11-21T01:06:06;0.70;;;0.63;;
21539;SDS011;10931;52.164;5.518;2023-11-21T01:08:43;1.48;;;0.80;;
21539;SDS011;10931;52.164;5.518;2023-11-21T01:11:10;1.40;;;0.90;;
21539;SDS011;10931;52.164;5.518;2023-11-21T01:13:41;0.90;;;0.60;;
21539;SDS011;10931;52.164;5.518;2023-11-21T01:16:21;1.00;;;0.80;;
21539;SDS011;10931;52.164;5.518;2023-11-21T01:18:47;0.93;;;0.65;;
21539;SDS011;10931;52.164;5.518;2023-11-21T01:21:13;0.93;;;0.60;;
21539;SDS011;10931;52.164;5.518;2023-11-21T01:23:39;0.80;;;0.70;;
21539;SDS011;10931;52.164;5.518;2023-11-21T01:26:20;0.77;;;0.65;;
21539;SDS011;10931;52.164;5.518;2023-11-21T01:28:55;1.17;;;0.60;;
21539;SDS011;10931;52.164;5.518;2023-11-21T01:31:32;1.00;;;0.65;;
21539;SDS011;10931;52.164;5.518;2023-11-21T01:34:03;1.00;;;0.70;;
21539;SDS011;10931;52.164;5.518;2023-11-21T01:36:31;0.60;;;0.50;;
21539;SDS011;10931;52.164;5.518;2023-11-21T01:39:00;1.25;;;0.60;;
21539;SDS011;10931;52.164;5.518;2023-11-21T01:41:28;1.17;;;0.73;;
21539;SDS011;10931;52.164;5.518;2023-11-21T01:47:07;1.02;;;0.60;;
21539;SDS011;10931;52.164;5.518;2023-11-21T01:49:34;0.98;;;0.70;;
21539;SDS011;10931;52.164;5.518;2023-11-21T01:52:08;0.50;;;0.50;;
21539;SDS011;10931;52.164;5.518;2023-11-21T01:54:36;0.60;;;0.60;;
21539;SDS011;10931;52.164;5.518;2023-11-21T01:57:06;0.73;;;0.70;;
21539;SDS011;10931;52.164;5.518;2023-11-21T01:59:38;0.85;;;0.77;;
21539;SDS011;10931;52.164;5.518;2023-11-21T02:02:15;1.88;;;0.70;;
21539;SDS011;10931;52.164;5.518;2023-11-21T02:04:50;0.90;;;0.70;;
21539;SDS011;10931;52.164;5.518;2023-11-21T02:07:15;0.63;;;0.50;;
21539;SDS011;10931;52.164;5.518;2023-11-21T02:09:43;1.33;;;0.75;;
21539;SDS011;10931;52.164;5.518;2023-11-21T02:12:12;0.70;;;0.70;;
21539;SDS011;10931;52.164;5.518;2023-11-21T02:14:38;0.60;;;0.60;;
21539;SDS011;10931;52.164;5.518;2023-11-21T02:17:04;1.00;;;0.73;;
21539;SDS011;10931;52.164;5.518;2023-11-21T02:19:30;0.80;;;0.63;;
21539;SDS011;10931;52.164;5.518;2023-11-21T02:24:32;0.93;;;0.80;;
21539;SDS011;10931;52.164;5.518;2023-11-21T02:26:58;1.17;;;0.90;;
21539;SDS011;10931;52.164;5.518;2023-11-21T02:29:23;0.90;;;0.70;;
21539;SDS011;10931;52.164;5.518;2023-11-21T02:31:55;1.08;;;0.60;;
21539;SDS011;10931;52.164;5.518;2023-11-21T02:37:12;0.98;;;0.70;;
21539;SDS011;10931;52.164;5.518;2023-11-21T02:39:38;1.10;;;0.80;;
21539;SDS011;10931;52.164;5.518;2023-11-21T02:42:06;0.68;;;0.68;;
21539;SDS011;10931;52.164;5.518;2023-11-21T02:44:37;0.70;;;0.57;;
21539;SDS011;10931;52.164;5.518;2023-11-21T02:47:03;1.08;;;0.70;;
21539;SDS011;10931;52.164;5.518;2023-11-21T02:49:31;1.15;;;0.70;;
21539;SDS011;10931;52.164;5.518;2023-11-21T02:52:00;0.50;;;0.50;;
21539;SDS011;10931;52.164;5.518;2023-11-21T02:54:26;0.93;;;0.70;;
21539;SDS011;10931;52.164;5.518;2023-11-21T02:57:02;1.02;;;0.70;;
21539;SDS011;10931;52.164;5.518;2023-11-21T02:59:28;1.02;;;0.50;;
21539;SDS011;10931;52.164;5.518;2023-11-21T03:02:01;1.17;;;0.73;;
21539;SDS011;10931;52.164;5.518;2023-11-21T03:04:27;0.98;;;0.60;;
21539;SDS011;10931;52.164;5.518;2023-11-21T03:07:01;0.50;;;0.50;;
21539;SDS011;10931;52.164;5.518;2023-11-21T03:09:27;0.63;;;0.60;;
21539;SDS011;10931;52.164;5.518;2023-11-21T03:11:55;0.80;;;0.63;;
21539;SDS011;10931;52.164;5.518;2023-11-21T03:14:21;0.70;;;0.60;;
21539;SDS011;10931;52.164;5.518;2023-11-21T03:19:43;0.75;;;0.60;;
21539;SDS011;10931;52.164;5.518;2023-11-21T03:22:19;0.70;;;0.60;;
21539;SDS011;10931;52.164;5.518;2023-11-21T03:24:48;1.50;;;0.68;;
21539;SDS011;10931;52.164;5.518;2023-11-21T03:27:17;0.90;;;0.70;;
21539;SDS011;10931;52.164;5.518;2023-11-21T03:29:43;1.05;;;0.70;;
21539;SDS011;10931;52.164;5.518;2023-11-21T03:32:11;0.90;;;0.68;;
21539;SDS011;10931;52.164;5.518;2023-11-21T03:34:41;0.82;;;0.60;;
21539;SDS011;10931;52.164;5.518;2023-11-21T03:37:24;0.70;;;0.60;;
21539;SDS011;10931;52.164;5.518;2023-11-21T03:39:56;1.67;;;0.80;;
21539;SDS011;10931;52.164;5.518;2023-11-21T03:44:57;0.90;;;0.60;;
21539;SDS011;10931;52.164;5.518;2023-11-21T03:49:52;0.80;;;0.55;;
21539;SDS011;10931;52.164;5.518;2023-11-21T03:52:30;1.08;;;0.60;;
21539;SDS011;10931;52.164;5.518;2023-11-21T03:54:56;0.63;;;0.50;;
21539;SDS011;10931;52.164;5.518;2023-11-21T03:57:26;0.40;;;0.40;;
21539;SDS011;10931;52.164;5.518;2023-11-21T04:00:01;1.98;;;0.63;;
21539;SDS011;10931;52.164;5.518;2023-11-21T04:02:30;1.00;;;0.60;;
21539;SDS011;10931;52.164;5.518;2023-11-21T04:04:56;1.50;;;0.77;;
21539;SDS011;10931;52.164;5.518;2023-11-21T04:09:56;0.68;;;0.60;;
21539;SDS011;10931;52.164;5.518;2023-11-21T04:12:21;0.82;;;0.65;;
21539;SDS011;10931;52.164;5.518;2023-11-21T04:14:49;0.93;;;0.60;;
21539;SDS011;10931;52.164;5.518;2023-11-21T04:17:22;0.90;;;0.60;;
21539;SDS011;10931;52.164;5.518;2023-11-21T04:19:50;0.85;;;0.65;;
21539;SDS011;10931;52.164;5.518;2023-11-21T04:22:16;0.60;;;0.60;;
21539;SDS011;10931;52.164;5.518;2023-11-21T04:24:45;0.75;;;0.68;;
21539;SDS011;10931;52.164;5.518;2023-11-21T04:27:29;1.10;;;0.80;;
21539;SDS011;10931;52.164;5.518;2023-11-21T04:29:55;1.20;;;0.73;;
21539;SDS011;10931;52.164;5.518;2023-11-21T04:34:56;0.98;;;0.60;;
21539;SDS011;10931;52.164;5.518;2023-11-21T04:37:28;0.88;;;0.70;;
21539;SDS011;10931;52.164;5.518;2023-11-21T04:39:53;0.88;;;0.60;;
21539;SDS011;10931;52.164;5.518;2023-11-21T04:42:19;0.77;;;0.60;;
21539;SDS011;10931;52.164;5.518;2023-11-21T04:44:51;1.20;;;0.60;;
21539;SDS011;10931;52.164;5.518;2023-11-21T04:47:17;0.93;;;0.63;;
21539;SDS011;10931;52.164;5.518;2023-11-21T04:49:45;0.68;;;0.57;;
21539;SDS011;10931;52.164;5.518;2023-11-21T04:52:14;1.15;;;0.60;;
21539;SDS011;10931;52.164;5.518;2023-11-21T04:54:44;1.67;;;0.82;;
21539;SDS011;10931;52.164;5.518;2023-11-21T04:57:13;0.60;;;0.50;;
21539;SDS011;10931;52.164;5.518;2023-11-21T04:59:43;0.82;;;0.60;;
21539;SDS011;10931;52.164;5.518;2023-11-21T05:02:09;0.70;;;0.60;;
21539;SDS011;10931;52.164;5.518;2023-11-21T05:04:36;1.05;;;0.60;;
21539;SDS011;10931;52.164;5.518;2023-11-21T05:07:02;0.57;;;0.57;;
21539;SDS011;10931;52.164;5.518;2023-11-21T05:09:35;0.50;;;0.50;;
21539;SDS011;10931;52.164;5.518;2023-11-21T05:12:04;0.45;;;0.45;;
21539;SDS011;10931;52.164;5.518;2023-11-21T05:14:40;0.90;;;0.68;;
21539;SDS011;10931;52.164;5.518;2023-11-21T05:17:09;0.60;;;0.60;;
21539;SDS011;10931;52.164;5.518;2023-11-21T05:19:35;0.80;;;0.60;;
21539;SDS011;10931;52.164;5.518;2023-11-21T05:22:42;1.80;;;0.75;;
21539;SDS011;10931;52.164;5.518;2023-11-21T05:25:15;0.82;;;0.60;;
21539;SDS011;10931;52.164;5.518;2023-11-21T05:27:47;1.15;;;0.70;;
21539;SDS011;10931;52.164;5.518;2023-11-21T05:59:49;0.95;;;0.60;;
21539;SDS011;10931;52.164;5.518;2023-11-21T06:08:45;0.98;;;0.57;;
21539;SDS011;10931;52.164;5.518;2023-11-21T06:11:36;0.50;;;0.50;;
21539;SDS011;10931;52.164;5.518;2023-11-21T06:14:01;1.25;;;0.60;;
21539;SDS011;10931;52.164;5.518;2023-11-21T06:28:03;0.70;;;0.50;;
21539;SDS011;10931;52.164;5.518;2023-11-21T06:31:04;0.65;;;0.63;;
21539;SDS011;10931;52.164;5.518;2023-11-21T06:34:06;1.05;;;0.60;;
21539;SDS011;10931;52.164;5.518;2023-11-21T06:39:55;0.80;;;0.60;;
21539;SDS011;10931;52.164;5.518;2023-11-21T06:42:44;0.50;;;0.50;;
21539;SDS011;10931;52.164;5.518;2023-11-21T06:45:21;0.75;;;0.50;;
21539;SDS011;10931;52.164;5.518;2023-11-21T06:48:00;0.88;;;0.60;;
21539;SDS011;10931;52.164;5.518;2023-11-21T06:50:31;0.93;;;0.50;;
21539;SDS011;10931;52.164;5.518;2023-11-21T06:52:56;0.88;;;0.63;;
21539;SDS011;10931;52.164;5.518;2023-11-21T07:17:55;0.65;;;0.50;;
21539;SDS011;10931;52.164;5.518;2023-11-21T07:20:28;1.35;;;0.70;;
21539;SDS011;10931;52.164;5.518;2023-11-21T07:23:01;0.68;;;0.60;;
21539;SDS011;10931;52.164;5.518;2023-11-21T07:28:36;1.75;;;0.70;;
21539;SDS011;10931;52.164;5.518;2023-11-21T07:34:21;0.85;;;0.60;;
21539;SDS011;10931;52.164;5.518;2023-11-21T07:36:50;0.70;;;0.52;;
21539;SDS011;10931;52.164;5.518;2023-11-21T07:45:22;0.80;;;0.60;;
21539;SDS011;10931;52.164;5.518;2023-11-21T07:47:51;0.80;;;0.52;;
21539;SDS011;10931;52.164;5.518;2023-11-21T07:50:18;0.90;;;0.45;;
21539;SDS011;10931;52.164;5.518;2023-11-21T07:52:53;0.95;;;0.50;;
21539;SDS011;10931;52.164;5.518;2023-11-21T07:55:21;0.80;;;0.60;;
21539;SDS011;10931;52.164;5.518;2023-11-21T08:00:46;0.82;;;0.50;;
21539;SDS011;10931;52.164;5.518;2023-11-21T08:03:23;0.88;;;0.52;;
21539;SDS011;10931;52.164;5.518;2023-11-21T08:05:53;0.40;;;0.40;;
21539;SDS011;10931;52.164;5.518;2023-11-21T08:08:26;0.80;;;0.47;;
21539;SDS011;10931;52.164;5.518;2023-11-21T08:13:46;0.70;;;0.60;;
21539;SDS011;10931;52.164;5.518;2023-11-21T08:16:18;0.70;;;0.50;;
21539;SDS011;10931;52.164;5.518;2023-11-21T08:18:46;0.68;;;0.57;;
21539;SDS011;10931;52.164;5.518;2023-11-21T08:21:31;0.90;;;0.70;;
21539;SDS011;10931;52.164;5.518;2023-11-21T08:24:13;0.98;;;0.50;;
21539;SDS011;10931;52.164;5.518;2023-11-21T08:26:59;0.70;;;0.60;;
21539;SDS011;10931;52.164;5.518;2023-11-21T08:29:29;1.35;;;0.80;;
21539;SDS011;10931;52.164;5.518;2023-11-21T08:32:09;1.50;;;0.80;;
21539;SDS011;10931;52.164;5.518;2023-11-21T08:37:45;1.15;;;0.60;;
21539;SDS011;10931;52.164;5.518;2023-11-21T08:40:16;0.98;;;0.70;;
21539;SDS011;10931;52.164;5.518;2023-11-21T08:45:46;0.75;;;0.68;;
21539;SDS011;10931;52.164;5.518;2023-11-21T08:50:53;1.05;;;0.65;;
21539;SDS011;10931;52.164;5.518;2023-11-21T08:53:28;1.50;;;0.70;;
21539;SDS011;10931;52.164;5.518;2023-11-21T08:55:56;1.30;;;0.70;;
21539;SDS011;10931;52.164;5.518;2023-11-21T09:01:23;1.00;;;0.50;;
21539;SDS011;10931;52.164;5.518;2023-11-21T09:03:49;1.27;;;0.70;;
21539;SDS011;10931;52.164;5.518;2023-11-21T09:06:26;1.50;;;0.75;;
21539;SDS011;10931;52.164;5.518;2023-11-21T09:14:54;1.58;;;0.63;;
21539;SDS011;10931;52.164;5.518;2023-11-21T09:17:43;1.23;;;0.77;;
21539;SDS011;10931;52.164;5.518;2023-11-21T09:23:21;2.50;;;0.75;;
21539;SDS011;10931;52.164;5.518;2023-11-21T09:25:58;1.10;;;0.60;;
21539;SDS011;10931;52.164;5.518;2023-11-21T09:28:34;1.05;;;0.80;;
21539;SDS011;10931;52.164;5.518;2023-11-21T09:31:18;1.00;;;0.80;;
21539;SDS011;10931;52.164;5.518;2023-11-21T09:55:28;2.42;;;0.90;;
21539;SDS011;10931;52.164;5.518;2023-11-21T10:01:36;1.33;;;0.80;;
21539;SDS011;10931;52.164;5.518;2023-11-21T10:04:07;1.70;;;1.00;;
21539;SDS011;10931;52.164;5.518;2023-11-21T10:06:43;1.70;;;0.95;;
21539;SDS011;10931;52.164;5.518;2023-11-21T10:09:15;2.17;;;0.90;;
21539;SDS011;10931;52.164;5.518;2023-11-21T10:11:53;1.90;;;1.10;;
21539;SDS011;10931;52.164;5.518;2023-11-21T10:17:20;1.70;;;1.02;;
21539;SDS011;10931;52.164;5.518;2023-11-21T10:19:49;1.30;;;0.82;;
21539;SDS011;10931;52.164;5.518;2023-11-21T10:22:15;2.95;;;1.25;;
21539;SDS011;10931;52.164;5.518;2023-11-21T10:24:50;2.70;;;1.08;;
21539;SDS011;10931;52.164;5.518;2023-11-21T10:27:38;1.35;;;0.88;;
21539;SDS011;10931;52.164;5.518;2023-11-21T10:30:05;1.42;;;0.80;;
21539;SDS011;10931;52.164;5.518;2023-11-21T10:32:43;1.70;;;0.93;;
21539;SDS011;10931;52.164;5.518;2023-11-21T10:35:22;3.92;;;0.98;;
21539;SDS011;10931;52.164;5.518;2023-11-21T10:38:17;1.58;;;0.80;;
21539;SDS011;10931;52.164;5.518;2023-11-21T10:41:01;1.17;;;1.08;;
21539;SDS011;10931;52.164;5.518;2023-11-21T10:43:43;1.83;;;1.00;;
21539;SDS011;10931;52.164;5.518;2023-11-21T10:46:35;2.22;;;0.90;;
21539;SDS011;10931;52.164;5.518;2023-11-21T10:49:03;1.70;;;1.20;;
21539;SDS011;10931;52.164;5.518;2023-11-21T10:54:21;2.35;;;1.13;;
21539;SDS011;10931;52.164;5.518;2023-11-21T10:56:50;1.48;;;1.23;;
21539;SDS011;10931;52.164;5.518;2023-11-21T10:59:34;1.20;;;0.90;;
21539;SDS011;10931;52.164;5.518;2023-11-21T11:02:02;1.92;;;1.00;;
21539;SDS011;10931;52.164;5.518;2023-11-21T11:04:57;1.70;;;1.13;;
21539;SDS011;10931;52.164;5.518;2023-11-21T11:07:26;2.25;;;1.42;;
21539;SDS011;10931;52.164;5.518;2023-11-21T11:09:54;2.08;;;1.17;;
21539;SDS011;10931;52.164;5.518;2023-11-21T11:12:23;1.92;;;1.23;;
21539;SDS011;10931;52.164;5.518;2023-11-21T11:15:01;1.67;;;1.20;;
21539;SDS011;10931;52.164;5.518;2023-11-21T11:17:31;1.13;;;0.93;;
21539;SDS011;10931;52.164;5.518;2023-11-21T11:25:39;1.40;;;1.00;;
21539;SDS011;10931;52.164;5.518;2023-11-21T11:28:44;1.33;;;1.10;;
21539;SDS011;10931;52.164;5.518;2023-11-21T11:39:37;1.70;;;1.13;;
21539;SDS011;10931;52.164;5.518;2023-11-21T11:42:14;1.45;;;1.00;;
21539;SDS011;10931;52.164;5.518;2023-11-21T11:47:24;2.63;;;0.85;;
21539;SDS011;10931;52.164;5.518;2023-11-21T11:49:56;1.73;;;1.10;;
21539;SDS011;10931;52.164;5.518;2023-11-21T11:52:46;2.03;;;1.33;;
21539;SDS011;10931;52.164;5.518;2023-11-21T11:55:16;2.03;;;1.30;;
21539;SDS011;10931;52.164;5.518;2023-11-21T11:57:57;2.20;;;1.25;;
21539;SDS011;10931;52.164;5.518;2023-11-21T12:00:42;1.48;;;0.95;;
21539;SDS011;10931;52.164;5.518;2023-11-21T12:03:32;1.63;;;0.95;;
21539;SDS011;10931;52.164;5.518;2023-11-21T12:06:02;2.08;;;1.35;;
21539;SDS011;10931;52.164;5.518;2023-11-21T12:11:51;1.98;;;1.20;;
21539;SDS011;10931;52.164;5.518;2023-11-21T12:14:17;2.08;;;1.52;;
21539;SDS011;10931;52.164;5.518;2023-11-21T12:16:43;1.67;;;1.08;;
21539;SDS011;10931;52.164;5.518;2023-11-21T12:19:26;2.40;;;1.30;;
21539;SDS011;10931;52.164;5.518;2023-11-21T12:21:52;2.38;;;1.20;;
21539;SDS011;10931;52.164;5.518;2023-11-21T12:24:20;1.83;;;1.15;;
21539;SDS011;10931;52.164;5.518;2023-11-21T12:26:47;2.50;;;1.40;;
21539;SDS011;10931;52.164;5.518;2023-11-21T12:29:19;2.17;;;1.40;;
21539;SDS011;10931;52.164;5.518;2023-11-21T12:31:47;1.88;;;1.20;;
21539;SDS011;10931;52.164;5.518;2023-11-21T12:34:14;2.80;;;1.20;;
21539;SDS011;10931;52.164;5.518;2023-11-21T12:39:14;2.35;;;1.23;;
21539;SDS011;10931;52.164;5.518;2023-11-21T12:41:47;1.67;;;1.15;;
21539;SDS011;10931;52.164;5.518;2023-11-21T12:44:34;1.70;;;1.00;;
21539;SDS011;10931;52.164;5.518;2023-11-21T12:47:01;1.85;;;1.10;;
21539;SDS011;10931;52.164;5.518;2023-11-21T12:49:32;2.00;;;1.30;;
21539;SDS011;10931;52.164;5.518;2023-11-21T12:52:13;3.80;;;1.33;;
21539;SDS011;10931;52.164;5.518;2023-11-21T12:54:39;1.83;;;1.05;;
21539;SDS011;10931;52.164;5.518;2023-11-21T12:57:05;2.13;;;1.20;;
21539;SDS011;10931;52.164;5.518;2023-11-21T12:59:42;4.47;;;1.10;;
21539;SDS011;10931;52.164;5.518;2023-11-21T13:02:15;1.48;;;1.00;;
21539;SDS011;10931;52.164;5.518;2023-11-21T13:04:54;1.85;;;0.98;;
21539;SDS011;10931;52.164;5.518;2023-11-21T13:07:23;2.00;;;1.10;;
21539;SDS011;10931;52.164;5.518;2023-11-21T13:09:54;1.77;;;1.10;;
21539;SDS011;10931;52.164;5.518;2023-11-21T13:12:35;1.60;;;1.20;;
21539;SDS011;10931;52.164;5.518;2023-11-21T13:15:05;1.63;;;1.05;;
21539;SDS011;10931;52.164;5.518;2023-11-21T13:17:52;2.42;;;1.40;;
21539;SDS011;10931;52.164;5.518;2023-11-21T13:20:22;1.70;;;1.13;;
21539;SDS011;10931;52.164;5.518;2023-11-21T13:25:24;1.20;;;0.90;;
21539;SDS011;10931;52.164;5.518;2023-11-21T13:27:58;1.98;;;1.23;;
21539;SDS011;10931;52.164;5.518;2023-11-21T13:30:36;2.17;;;0.95;;
21539;SDS011;10931;52.164;5.518;2023-11-21T13:33:16;1.50;;;1.10;;
21539;SDS011;10931;52.164;5.518;2023-11-21T13:36:02;1.92;;;1.20;;
21539;SDS011;10931;52.164;5.518;2023-11-21T13:38:35;2.10;;;1.10;;
21539;SDS011;10931;52.164;5.518;2023-11-21T13:41:07;1.63;;;0.85;;
21539;SDS011;10931;52.164;5.518;2023-11-21T13:43:40;1.85;;;1.15;;
21539;SDS011;10931;52.164;5.518;2023-11-21T13:46:10;1.88;;;1.00;;
21539;SDS011;10931;52.164;5.518;2023-11-21T13:48:42;2.53;;;1.23;;
21539;SDS011;10931;52.164;5.518;2023-11-21T13:51:30;2.30;;;1.25;;
21539;SDS011;10931;52.164;5.518;2023-11-21T13:56:35;1.70;;;1.17;;
21539;SDS011;10931;52.164;5.518;2023-11-21T13:59:13;1.42;;;0.95;;
21539;SDS011;10931;52.164;5.518;2023-11-21T14:01:47;2.22;;;1.20;;
21539;SDS011;10931;52.164;5.518;2023-11-21T14:04:37;1.60;;;1.20;;
21539;SDS011;10931;52.164;5.518;2023-11-21T14:07:20;2.30;;;1.60;;
21539;SDS011;10931;52.164;5.518;2023-11-21T14:10:01;2.20;;;1.40;;
21539;SDS011;10931;52.164;5.518;2023-11-21T14:12:30;2.28;;;1.40;;
21539;SDS011;10931;52.164;5.518;2023-11-21T14:14:59;2.38;;;1.33;;
21539;SDS011;10931;52.164;5.518;2023-11-21T14:17:32;2.60;;;1.23;;
21539;SDS011;10931;52.164;5.518;2023-11-21T14:19:59;2.47;;;1.55;;
21539;SDS011;10931;52.164;5.518;2023-11-21T14:22:29;2.38;;;1.50;;
21539;SDS011;10931;52.164;5.518;2023-11-21T14:24:56;2.28;;;1.50;;
21539;SDS011;10931;52.164;5.518;2023-11-21T14:27:29;2.95;;;1.50;;
21539;SDS011;10931;52.164;5.518;2023-11-21T14:29:57;2.85;;;1.92;;
21539;SDS011;10931;52.164;5.518;2023-11-21T14:32:30;3.95;;;1.73;;
21539;SDS011;10931;52.164;5.518;2023-11-21T14:35:04;2.70;;;1.60;;
21539;SDS011;10931;52.164;5.518;2023-11-21T14:37:34;2.85;;;1.90;;
21539;SDS011;10931;52.164;5.518;2023-11-21T14:40:00;2.60;;;1.85;;
21539;SDS011;10931;52.164;5.518;2023-11-21T14:42:41;3.28;;;1.80;;
21539;SDS011;10931;52.164;5.518;2023-11-21T14:45:12;2.78;;;1.83;;
21539;SDS011;10931;52.164;5.518;2023-11-21T14:47:44;3.13;;;1.65;;
21539;SDS011;10931;52.164;5.518;2023-11-21T14:50:21;1.92;;;1.50;;
21539;SDS011;10931;52.164;5.518;2023-11-21T14:53:05;2.88;;;1.85;;
21539;SDS011;10931;52.164;5.518;2023-11-21T14:55:32;3.47;;;2.10;;
21539;SDS011;10931;52.164;5.518;2023-11-21T14:58:07;5.93;;;2.33;;
21539;SDS011;10931;52.164;5.518;2023-11-21T15:00:40;3.40;;;1.90;;
21539;SDS011;10931;52.164;5.518;2023-11-21T15:03:16;3.15;;;1.92;;
21539;SDS011;10931;52.164;5.518;2023-11-21T15:06:03;3.72;;;2.05;;
21539;SDS011;10931;52.164;5.518;2023-11-21T15:08:48;2.80;;;1.95;;
21539;SDS011;10931;52.164;5.518;2023-11-21T15:13:58;2.83;;;1.98;;
21539;SDS011;10931;52.164;5.518;2023-11-21T15:16:40;3.60;;;2.00;;
21539;SDS011;10931;52.164;5.518;2023-11-21T15:19:16;3.35;;;1.85;;
21539;SDS011;10931;52.164;5.518;2023-11-21T15:21:47;3.13;;;1.90;;
21539;SDS011;10931;52.164;5.518;2023-11-21T15:24:18;3.33;;;2.00;;
21539;SDS011;10931;52.164;5.518;2023-11-21T15:29:49;3.97;;;2.00;;
21539;SDS011;10931;52.164;5.518;2023-11-21T15:33:05;3.33;;;2.00;;
21539;SDS011;10931;52.164;5.518;2023-11-21T15:35:35;2.63;;;1.65;;
21539;SDS011;10931;52.164;5.518;2023-11-21T15:38:03;2.80;;;1.80;;
21539;SDS011;10931;52.164;5.518;2023-11-21T15:40:29;2.47;;;1.80;;
21539;SDS011;10931;52.164;5.518;2023-11-21T15:42:57;2.33;;;1.70;;
21539;SDS011;10931;52.164;5.518;2023-11-21T15:45:26;3.35;;;2.05;;
21539;SDS011;10931;52.164;5.518;2023-11-21T15:47:54;5.85;;;2.17;;
21539;SDS011;10931;52.164;5.518;2023-11-21T15:50:25;2.08;;;1.55;;
21539;SDS011;10931;52.164;5.518;2023-11-21T15:58:36;3.17;;;2.08;;
21539;SDS011;10931;52.164;5.518;2023-11-21T16:01:24;2.97;;;1.80;;
21539;SDS011;10931;52.164;5.518;2023-11-21T16:03:50;2.80;;;1.70;;
21539;SDS011;10931;52.164;5.518;2023-11-21T16:06:27;1.90;;;1.60;;
21539;SDS011;10931;52.164;5.518;2023-11-21T16:08:55;2.90;;;1.70;;
21539;SDS011;10931;52.164;5.518;2023-11-21T16:11:26;2.30;;;1.67;;
21539;SDS011;10931;52.164;5.518;2023-11-21T16:13:55;2.55;;;1.60;;
21539;SDS011;10931;52.164;5.518;2023-11-21T16:16:30;2.65;;;1.80;;
21539;SDS011;10931;52.164;5.518;2023-11-21T16:18:58;2.67;;;2.00;;
21539;SDS011;10931;52.164;5.518;2023-11-21T16:21:30;2.22;;;1.75;;
21539;SDS011;10931;52.164;5.518;2023-11-21T16:24:45;2.33;;;1.80;;
21539;SDS011;10931;52.164;5.518;2023-11-21T16:27:17;2.83;;;1.73;;
21539;SDS011;10931;52.164;5.518;2023-11-21T16:29:42;2.10;;;1.60;;
21539;SDS011;10931;52.164;5.518;2023-11-21T16:32:26;2.55;;;1.67;;
21539;SDS011;10931;52.164;5.518;2023-11-21T16:35:06;1.85;;;1.35;;
21539;SDS011;10931;52.164;5.518;2023-11-21T16:37:56;2.58;;;1.70;;
21539;SDS011;10931;52.164;5.518;2023-11-21T16:40:31;2.53;;;1.50;;
21539;SDS011;10931;52.164;5.518;2023-11-21T16:43:09;2.40;;;1.70;;
21539;SDS011;10931;52.164;5.518;2023-11-21T16:45:47;2.40;;;1.60;;
21539;SDS011;10931;52.164;5.518;2023-11-21T16:48:24;2.20;;;1.55;;
21539;SDS011;10931;52.164;5.518;2023-11-21T16:50:57;1.98;;;1.52;;
21539;SDS011;10931;52.164;5.518;2023-11-21T16:53:31;2.15;;;1.67;;
21539;SDS011;10931;52.164;5.518;2023-11-21T16:56:29;2.03;;;1.52;;
21539;SDS011;10931;52.164;5.518;2023-11-21T16:59:41;3.13;;;1.60;;
21539;SDS011;10931;52.164;5.518;2023-11-21T17:05:38;3.10;;;1.75;;
21539;SDS011;10931;52.164;5.518;2023-11-21T17:08:24;2.50;;;1.80;;
21539;SDS011;10931;52.164;5.518;2023-11-21T17:10:58;2.65;;;1.60;;
21539;SDS011;10931;52.164;5.518;2023-11-21T17:13:45;2.47;;;1.83;;
21539;SDS011;10931;52.164;5.518;2023-11-21T17:16:11;2.38;;;1.50;;
21539;SDS011;10931;52.164;5.518;2023-11-21T17:18:50;1.60;;;1.40;;
21539;SDS011;10931;52.164;5.518;2023-11-21T17:21:21;3.08;;;1.70;;
21539;SDS011;10931;52.164;5.518;2023-11-21T17:23:58;2.20;;;1.60;;
21539;SDS011;10931;52.164;5.518;2023-11-21T17:26:26;3.10;;;1.90;;
21539;SDS011;10931;52.164;5.518;2023-11-21T17:29:01;5.18;;;2.03;;
21539;SDS011;10931;52.164;5.518;2023-11-21T17:31:39;2.30;;;1.55;;
21539;SDS011;10931;52.164;5.518;2023-11-21T17:34:08;2.30;;;1.60;;
21539;SDS011;10931;52.164;5.518;2023-11-21T17:36:47;2.38;;;1.77;;
21539;SDS011;10931;52.164;5.518;2023-11-21T17:39:15;2.47;;;1.70;;
21539;SDS011;10931;52.164;5.518;2023-11-21T17:41:46;2.35;;;1.70;;
21539;SDS011;10931;52.164;5.518;2023-11-21T17:46:58;2.85;;;1.80;;
21539;SDS011;10931;52.164;5.518;2023-11-21T17:49:27;2.97;;;1.70;;
21539;SDS011;10931;52.164;5.518;2023-11-21T17:55:14;2.22;;;1.70;;
21539;SDS011;10931;52.164;5.518;2023-11-21T17:57:47;2.83;;;1.80;;
21539;SDS011;10931;52.164;5.518;2023-11-21T18:00:41;2.60;;;1.83;;
21539;SDS011;10931;52.164;5.518;2023-11-21T18:03:12;2.03;;;1.70;;
21539;SDS011;10931;52.164;5.518;2023-11-21T18:05:47;2.70;;;1.55;;
21539;SDS011;10931;52.164;5.518;2023-11-21T18:08:18;3.22;;;1.95;;
21539;SDS011;10931;52.164;5.518;2023-11-21T18:10:46;2.80;;;1.90;;
21539;SDS011;10931;52.164;5.518;2023-11-21T18:14:06;1.83;;;1.50;;
21539;SDS011;10931;52.164;5.518;2023-11-21T18:16:35;2.17;;;1.70;;
21539;SDS011;10931;52.164;5.518;2023-11-21T18:19:03;2.63;;;1.67;;
21539;SDS011;10931;52.164;5.518;2023-11-21T18:21:50;2.80;;;1.88;;
21539;SDS011;10931;52.164;5.518;2023-11-21T18:24:16;2.38;;;1.88;;
21539;SDS011;10931;52.164;5.518;2023-11-21T18:26:44;2.97;;;1.88;;
21539;SDS011;10931;52.164;5.518;2023-11-21T18:29:09;2.30;;;1.70;;
21539;SDS011;10931;52.164;5.518;2023-11-21T18:31:53;3.20;;;2.00;;
21539;SDS011;10931;52.164;5.518;2023-11-21T18:34:21;2.30;;;1.70;;
21539;SDS011;10931;52.164;5.518;2023-11-21T18:36:51;2.05;;;1.58;;
21539;SDS011;10931;52.164;5.518;2023-11-21T18:39:17;4.40;;;1.92;;
21539;SDS011;10931;52.164;5.518;2023-11-21T18:47:30;2.35;;;1.98;;
21539;SDS011;10931;52.164;5.518;2023-11-21T18:49:56;2.33;;;1.65;;
21539;SDS011;10931;52.164;5.518;2023-11-21T18:52:30;3.15;;;2.00;;
21539;SDS011;10931;52.164;5.518;2023-11-21T18:55:01;4.05;;;2.45;;
21539;SDS011;10931;52.164;5.518;2023-11-21T18:57:38;3.70;;;2.10;;
21539;SDS011;10931;52.164;5.518;2023-11-21T19:00:44;3.95;;;2.30;;
21539;SDS011;10931;52.164;5.518;2023-11-21T19:03:13;3.92;;;2.50;;
21539;SDS011;10931;52.164;5.518;2023-11-21T19:06:05;3.30;;;2.25;;
21539;SDS011;10931;52.164;5.518;2023-11-21T19:08:47;4.40;;;2.60;;
21539;SDS011;10931;52.164;5.518;2023-11-21T19:14:17;5.82;;;2.70;;